Terminal Aerodrome Forecast
Issued by NWS Detroit/Pontiac, MI

Home | Current Version | Previous Version | Text Only | Print | Product List | Glossary On
Versions: 1 2 3 4 5 6 7 8 9 10 11 12 13 14 15 16 17 18 19 20 21 22 23 24 25 26 27 28 29
000
FTUS43 KDTX 051132
TAFDTW
TAF
KDTW 051132Z 0512/0618 06008KT 6SM -SHRA OVC060
      TEMPO 0512/0516 3SM SHRA OVC025
     FM051600 09010KT 6SM -SHRA OVC025
     FM052000 07010KT 4SM SHRA BR OVC015
     FM060800 09005KT 2SM BR OVC007=

USA.gov is the U.S. government's official web portal to all federal, state and local government web resources and services.